Natchaug River @ Chaplin, Ct

Natchuag River at Chaplin
 Total Drainage Area: 68 sq. miles 
 Drainage Area Controlled by Corps Dams: 0 sq. miles (0%) 
 Warning Flow/Stage: ?? cfs / ?? feet 
 Flood Flow/Stage: ?? cfs / ?? feet 
Date Time
(Eastern)
Stage
(ft)
Flow
(cfs)
CSM
(cfs / sq. mi.)
Jan-31 03:00 pm 4.00 296 4.4
Jan-31 02:00 pm 4.02 302 4.5
Jan-31 01:00 pm 4.00 296 4.4
Jan-31 12:00 pm 4.01 299 4.4
Jan-31 11:00 am 4.03 305 4.5
Jan-31 10:00 am 4.03 305 4.5
Jan-31 09:00 am 4.03 305 4.5
Jan-31 08:00 am 4.05 312 4.6
Jan-31 07:00 am 4.04 309 4.5
Jan-31 06:00 am 4.02 302 4.5
Jan-31 05:00 am 4.02 302 4.5
Jan-31 04:00 am 4.06 315 4.6
Jan-31 03:00 am 4.06 315 4.6
Jan-31 02:00 am 4.07 318 4.7
Jan-31 01:00 am 4.08 321 4.7
Jan-31 12:00 am 4.07 318 4.7
Jan-30 11:00 pm 4.10 328 4.8
Jan-30 10:00 pm 4.10 328 4.8
Jan-30 09:00 pm 4.11 331 4.9
Jan-30 08:00 pm 4.11 331 4.9
Jan-30 07:00 pm 4.12 334 4.9
Jan-30 06:00 pm 4.13 338 5.0
Jan-30 05:00 pm 4.12 334 4.9
Jan-30 04:00 pm 4.13 338 5.0
Jan-30 03:00 pm 4.11 331 4.9
Report Generated January 31, 2023 08:32 pm